Time;durP1;ratioP1;P1;durP2;ratioP2;P2;SDS_P1;SDS_P2;PMS_P1;PMS_P2;Temp;Humidity;BMP_temperature;BMP_pressure;BME280_temperature;BME280_humidity;BME280_pressure;Samples;Min_cycle;Max_cycle;Signal;HPM_P1;HPM_P2
2020/12/04 00:01:14;;;;;;;12.93;8.73;;;;;;;2.31;82.68;95284.06;1702268;83;21095;-89
2020/12/04 00:03:40;;;;;;;8.73;6.92;;;;;;;2.30;82.63;95279.89;1720175;82;21135;-89
2020/12/04 00:06:06;;;;;;;13.25;8.98;;;;;;;2.52;83.51;95271.27;1711758;83;21249;-88
2020/12/04 00:08:32;;;;;;;16.87;11.57;;;;;;;2.79;83.43;95273.53;1709373;82;21405;-89
2020/12/04 00:10:58;;;;;;;12.15;8.85;;;;;;;2.89;82.69;95287.45;1703107;82;21121;-89
2020/12/04 00:13:24;;;;;;;9.83;7.53;;;;;;;3.09;82.73;95272.52;1707859;82;21115;-89
2020/12/04 00:15:50;;;;;;;12.70;10.08;;;;;;;3.19;82.10;95267.55;1706210;82;21159;-89
2020/12/04 00:18:16;;;;;;;10.65;7.72;;;;;;;3.44;82.12;95264.94;1660685;85;21157;-90
2020/12/04 00:20:43;;;;;;;13.40;10.82;;;;;;;3.64;81.83;95263.58;1616712;87;21163;-89
2020/12/04 00:23:09;;;;;;;11.40;8.08;;;;;;;3.76;81.41;95265.31;1659388;85;21143;-90
2020/12/04 00:25:35;;;;;;;10.98;7.67;;;;;;;3.74;80.90;95265.48;1664919;85;21121;-90
2020/12/04 00:28:01;;;;;;;7.92;5.12;;;;;;;3.69;80.65;95269.02;1664384;85;21135;-90
2020/12/04 00:30:27;;;;;;;8.55;5.20;;;;;;;3.71;80.02;95265.79;1642779;85;21164;-90
2020/12/04 00:32:53;;;;;;;11.25;7.92;;;;;;;3.98;80.31;95258.63;1643169;85;21126;-90
2020/12/04 00:35:19;;;;;;;8.65;6.78;;;;;;;4.12;79.84;95275.42;1672593;85;21330;-90
2020/12/04 00:37:46;;;;;;;9.63;6.72;;;;;;;4.00;78.96;95264.39;1633730;85;21148;-90
2020/12/04 00:40:12;;;;;;;11.03;7.30;;;;;;;3.76;78.67;95291.81;1640874;86;21503;-90
2020/12/04 00:42:38;;;;;;;8.78;6.65;;;;;;;3.53;79.03;95265.22;1706859;83;21104;-90
2020/12/04 00:45:04;;;;;;;9.43;5.53;;;;;;;3.32;79.08;95282.45;1650931;85;21191;-89
2020/12/04 00:47:30;;;;;;;8.10;5.78;;;;;;;3.23;79.93;95271.86;1722824;81;21147;-89
2020/12/04 00:49:56;;;;;;;11.22;7.58;;;;;;;3.34;79.65;95281.80;1708830;84;21139;-90
2020/12/04 00:52:23;;;;;;;8.58;7.05;;;;;;;3.27;79.92;95279.09;1664363;85;21167;-90
2020/12/04 00:54:49;;;;;;;9.68;7.55;;;;;;;3.39;79.72;95290.28;1672038;85;21333;-89
2020/12/04 00:57:15;;;;;;;9.30;6.90;;;;;;;3.25;79.37;95272.50;1671350;84;21450;-88
2020/12/04 00:59:41;;;;;;;8.88;7.17;;;;;;;3.09;79.23;95276.37;1689773;84;21096;-89
2020/12/04 01:02:07;;;;;;;10.05;6.90;;;;;;;2.96;79.72;95267.91;1716600;81;21122;-89
2020/12/04 01:04:33;;;;;;;11.83;7.22;;;;;;;2.83;79.51;95274.00;1726447;81;21137;-89
2020/12/04 01:07:04;;;;;;;10.60;7.20;;;;;;;2.72;79.92;95261.00;1715684;81;21109;-88
2020/12/04 01:09:30;;;;;;;12.53;8.80;;;;;;;2.79;80.87;95272.25;1730309;81;21106;-88
2020/12/04 01:11:57;;;;;;;12.50;8.90;;;;;;;2.94;80.79;95259.09;1728107;81;21095;-88
2020/12/04 01:14:23;;;;;;;11.78;8.50;;;;;;;3.07;81.00;95252.64;1726166;81;21285;-89
2020/12/04 01:16:49;;;;;;;10.08;7.03;;;;;;;3.18;80.86;95260.01;1721304;81;21139;-89
2020/12/04 01:19:15;;;;;;;10.13;7.50;;;;;;;3.14;80.15;95252.32;1725607;81;21155;-89
2020/12/04 01:21:41;;;;;;;10.23;7.72;;;;;;;3.06;80.35;95255.69;1728133;81;21261;-89
2020/12/04 01:24:07;;;;;;;11.60;8.05;;;;;;;3.11;80.73;95247.52;1732495;81;21130;-89
2020/12/04 01:26:33;;;;;;;9.73;7.08;;;;;;;3.22;80.73;95240.73;1732782;81;21352;-90
2020/12/04 01:28:59;;;;;;;10.95;6.70;;;;;;;3.27;80.17;95247.48;1729363;81;21121;-89
2020/12/04 01:31:25;;;;;;;11.22;7.62;;;;;;;3.21;79.47;95256.62;1723598;81;21153;-89
2020/12/04 01:33:52;;;;;;;11.83;8.40;;;;;;;3.01;79.44;95238.70;1729890;81;21375;-88
2020/12/04 01:36:17;;;;;;;11.12;8.03;;;;;;;2.84;80.10;95249.95;1724549;81;21129;-89
2020/12/04 01:38:44;;;;;;;10.28;7.65;;;;;;;2.90;80.49;95234.70;1727116;81;21355;-89
2020/12/04 01:41:10;;;;;;;12.98;7.37;;;;;;;2.88;80.30;95216.58;1720476;81;21137;-89
2020/12/04 01:43:36;;;;;;;8.58;6.35;;;;;;;2.83;80.31;95233.75;1727841;81;21097;-89
2020/12/04 01:46:02;;;;;;;10.38;7.45;;;;;;;2.82;80.95;95205.22;1727436;81;21243;-89
2020/12/04 01:48:28;;;;;;;11.03;8.53;;;;;;;3.18;81.18;95204.82;1725387;82;21225;-89
2020/12/04 01:50:55;;;;;;;9.60;7.20;;;;;;;3.14;79.83;95210.77;1728093;81;21087;-88
2020/12/04 01:53:22;;;;;;;11.12;8.30;;;;;;;3.03;80.13;95206.45;1723917;82;21126;-89
2020/12/04 01:55:48;;;;;;;9.25;6.15;;;;;;;2.90;79.78;95203.11;1718742;82;21136;-88
2020/12/04 01:58:17;;;;;;;7.58;5.80;;;;;;;2.81;80.23;95186.94;1699340;82;21155;-88
2020/12/04 02:00:44;;;;;;;9.73;6.87;;;;;;;2.81;80.11;95177.97;1715833;82;21187;-89
2020/12/04 02:03:12;;;;;;;10.30;7.55;;;;;;;2.73;79.74;95182.29;1727660;82;21139;-89
2020/12/04 02:05:50;;;;;;;9.13;7.00;;;;;;;2.61;80.07;95173.67;1718308;82;21387;-88
2020/12/04 02:08:23;;;;;;;12.15;7.45;;;;;;;2.49;80.02;95177.52;1723369;82;21260;-88
2020/12/04 02:10:54;;;;;;;10.15;7.00;;;;;;;2.36;80.21;95183.60;1722335;82;21381;-88
2020/12/04 02:13:20;;;;;;;9.93;7.83;;;;;;;2.31;80.81;95176.40;1723389;82;21674;-89
2020/12/04 02:15:46;;;;;;;8.88;5.92;;;;;;;2.25;81.02;95183.91;1715836;82;21134;-88
2020/12/04 02:18:13;;;;;;;8.70;6.85;;;;;;;2.29;82.58;95165.99;1722277;82;21115;-89
2020/12/04 02:20:39;;;;;;;10.25;7.78;;;;;;;2.46;81.48;95177.84;1715073;82;21086;-88
2020/12/04 02:23:04;;;;;;;9.38;7.15;;;;;;;2.44;81.26;95164.39;1713679;82;21147;-89
2020/12/04 02:25:31;;;;;;;9.85;7.20;;;;;;;2.44;81.38;95164.84;1722387;82;21111;-88
2020/12/04 02:27:57;;;;;;;9.68;6.60;;;;;;;2.36;81.12;95154.92;1722285;82;21389;-89
2020/12/04 02:30:32;;;;;;;10.08;6.50;;;;;;;2.28;80.96;95153.66;1727978;82;21115;-89
2020/12/04 02:32:58;;;;;;;11.57;8.48;;;;;;;2.30;81.25;95151.73;1721392;82;21379;-89
2020/12/04 02:35:24;;;;;;;10.95;8.38;;;;;;;2.37;81.81;95157.80;1719242;82;21109;-89
2020/12/04 02:37:52;;;;;;;12.15;7.85;;;;;;;2.59;82.57;95164.52;1727401;82;21118;-88
2020/12/04 02:40:20;;;;;;;9.70;6.85;;;;;;;2.88;82.37;95149.88;1684749;83;21400;-89
2020/12/04 02:42:46;;;;;;;8.35;5.83;;;;;;;2.92;81.19;95151.94;1727290;82;21117;-89
2020/12/04 02:45:12;;;;;;;8.60;7.10;;;;;;;2.79;80.81;95149.59;1719907;82;21357;-89
2020/12/04 02:47:42;;;;;;;10.35;7.45;;;;;;;2.74;80.44;95148.78;1716307;82;21124;-89
2020/12/04 02:50:09;;;;;;;10.50;7.53;;;;;;;2.58;80.30;95153.94;1720726;82;21094;-90
2020/12/04 02:52:34;;;;;;;10.60;7.42;;;;;;;2.47;80.60;95160.70;1734025;82;21413;-90
2020/12/04 02:55:01;;;;;;;9.33;6.83;;;;;;;2.37;80.75;95153.96;1726224;82;21125;-90
2020/12/04 02:57:26;;;;;;;8.20;6.72;;;;;;;2.28;80.89;95169.04;1724308;82;21255;-90
2020/12/04 02:59:52;;;;;;;9.88;7.12;;;;;;;2.22;81.19;95165.02;1725886;82;21116;-90
2020/12/04 03:02:18;;;;;;;9.88;7.22;;;;;;;2.17;81.27;95161.66;1719884;82;21125;-90
2020/12/04 03:04:45;;;;;;;9.63;7.25;;;;;;;2.18;81.48;95170.14;1729954;82;21142;-89
2020/12/04 03:07:11;;;;;;;9.85;7.10;;;;;;;2.28;82.30;95157.98;1723005;82;21147;-90
2020/12/04 03:09:37;;;;;;;8.83;6.65;;;;;;;2.33;81.43;95171.11;1720814;82;21132;-90
2020/12/04 03:12:03;;;;;;;10.05;6.62;;;;;;;2.22;81.10;95172.22;1725319;82;21142;-90
2020/12/04 03:14:29;;;;;;;8.90;6.72;;;;;;;2.14;81.69;95153.02;1718151;82;21110;-89
2020/12/04 03:16:55;;;;;;;9.75;7.10;;;;;;;2.12;81.71;95166.95;1724792;82;21141;-89
2020/12/04 03:19:21;;;;;;;8.45;6.97;;;;;;;2.16;82.20;95161.34;1723458;82;21138;-90
2020/12/04 03:21:48;;;;;;;9.25;6.58;;;;;;;2.35;82.66;95165.34;1726812;82;21133;-89
2020/12/04 03:24:14;;;;;;;10.00;7.72;;;;;;;2.51;83.13;95147.38;1720817;82;21139;-90
2020/12/04 03:26:40;;;;;;;9.18;7.33;;;;;;;2.92;83.08;95156.27;1718760;82;21340;-90
2020/12/04 03:29:07;;;;;;;8.13;6.67;;;;;;;3.11;82.29;95157.69;1723715;82;21106;-89
2020/12/04 03:31:33;;;;;;;9.15;6.87;;;;;;;3.03;81.06;95150.80;1726560;82;21106;-90
2020/12/04 03:33:59;;;;;;;8.00;6.20;;;;;;;2.91;81.18;95146.50;1724630;82;21115;-89
2020/12/04 03:36:25;;;;;;;8.38;6.08;;;;;;;2.82;80.92;95153.11;1721815;82;21129;-90
2020/12/04 03:38:51;;;;;;;6.65;5.42;;;;;;;2.76;81.00;95131.94;1731021;82;21103;-89
2020/12/04 03:41:16;;;;;;;8.33;7.03;;;;;;;2.67;80.95;95131.17;1719531;82;22286;-90
2020/12/04 03:43:43;;;;;;;7.90;6.80;;;;;;;2.62;80.86;95145.77;1715298;82;21107;-90
2020/12/04 03:46:11;;;;;;;7.40;5.70;;;;;;;2.55;81.03;95156.83;1719238;82;21127;-90
2020/12/04 03:48:39;;;;;;;7.75;6.00;;;;;;;2.44;81.29;95157.15;1716186;82;21907;-89
2020/12/04 03:51:05;;;;;;;8.68;6.65;;;;;;;2.46;82.02;95149.64;1716840;82;21470;-89
2020/12/04 03:53:32;;;;;;;9.80;6.90;;;;;;;2.59;82.54;95130.69;1717404;82;21131;-89
2020/12/04 03:55:58;;;;;;;9.73;6.20;;;;;;;2.69;82.11;95124.91;1717782;82;21135;-90
2020/12/04 03:58:24;;;;;;;10.28;6.72;;;;;;;2.75;81.73;95140.12;1713353;82;21341;-89
2020/12/04 04:00:51;;;;;;;10.70;6.80;;;;;;;2.82;82.50;95139.80;1713630;82;21442;-89
2020/12/04 04:03:17;;;;;;;8.63;6.33;;;;;;;3.16;82.36;95119.00;1718236;82;21258;-90
2020/12/04 04:05:43;;;;;;;10.40;7.10;;;;;;;3.16;81.04;95120.77;1719845;82;21082;-89
2020/12/04 04:08:09;;;;;;;11.53;7.67;;;;;;;3.05;81.44;95124.97;1717357;82;21107;-89
2020/12/04 04:10:35;;;;;;;8.65;6.25;;;;;;;3.24;82.31;95118.95;1720828;82;21115;-90
2020/12/04 04:13:01;;;;;;;16.65;13.78;;;;;;;3.29;80.74;95124.89;1718553;82;21348;-89
2020/12/04 04:15:27;;;;;;;11.15;9.48;;;;;;;3.27;81.03;95110.94;1722981;82;21338;-89
2020/12/04 04:17:53;;;;;;;11.25;7.85;;;;;;;3.30;80.67;95113.17;1712410;82;21154;-89
2020/12/04 04:20:19;;;;;;;10.28;7.08;;;;;;;3.15;80.13;95110.98;1722571;82;21158;-90
2020/12/04 04:22:46;;;;;;;7.15;6.10;;;;;;;3.07;80.88;95111.48;1723397;82;21179;-90
2020/12/04 04:25:15;;;;;;;8.00;5.78;;;;;;;3.11;80.99;95122.56;1711197;82;21171;-90
2020/12/04 04:27:39;;;;;;;8.38;5.65;;;;;;;3.23;82.00;95108.85;1712981;82;21186;-90
2020/12/04 04:30:07;;;;;;;7.80;6.40;;;;;;;3.51;81.96;95122.05;1716216;82;21260;-90
2020/12/04 04:32:33;;;;;;;8.43;6.55;;;;;;;3.71;81.76;95109.56;1714894;82;21143;-90
2020/12/04 04:34:59;;;;;;;8.68;7.12;;;;;;;3.88;80.88;95126.48;1711130;82;21124;-90
2020/12/04 04:37:25;;;;;;;11.25;7.50;;;;;;;3.99;80.67;95118.86;1719093;82;21818;-89
2020/12/04 04:39:51;;;;;;;9.38;6.33;;;;;;;3.95;79.89;95108.62;1694439;82;21132;-90
2020/12/04 04:42:18;;;;;;;8.18;6.05;;;;;;;3.90;80.85;95079.56;1712988;82;21116;-90
2020/12/04 04:44:44;;;;;;;9.38;6.00;;;;;;;4.32;80.54;95119.41;1706528;82;21336;-90
2020/12/04 04:47:13;;;;;;;8.73;6.25;;;;;;;4.33;79.35;95112.00;1719983;81;21129;-90
2020/12/04 04:49:50;;;;;;;8.30;6.17;;;;;;;4.16;78.43;95117.77;1719906;81;21416;-90
2020/12/04 04:52:16;;;;;;;9.08;6.65;;;;;;;3.97;78.40;95125.95;1724816;81;21469;-90
2020/12/04 04:54:45;;;;;;;8.35;6.70;;;;;;;3.80;79.42;95119.63;1719463;81;21129;-89
2020/12/04 04:57:12;;;;;;;6.58;5.87;;;;;;;4.24;80.90;95113.06;1726852;81;21453;-90
2020/12/04 04:59:42;;;;;;;6.17;5.22;;;;;;;4.43;80.12;95119.00;1722319;81;21108;-90
2020/12/04 05:02:14;;;;;;;7.25;5.42;;;;;;;4.50;79.13;95121.17;1717408;81;21344;-90
2020/12/04 05:04:48;;;;;;;6.47;4.87;;;;;;;4.47;78.99;95114.61;1707949;81;21105;-91
2020/12/04 05:07:31;;;;;;;7.58;6.15;;;;;;;4.26;77.63;95119.62;1719387;81;21150;-90
2020/12/04 05:10:17;;;;;;;6.92;5.37;;;;;;;3.98;78.13;95106.50;1728872;81;21225;-90
2020/12/04 05:12:45;;;;;;;7.62;5.53;;;;;;;3.72;78.30;95122.72;1722145;81;21360;-89
2020/12/04 05:15:23;;;;;;;7.78;5.55;;;;;;;3.57;79.61;95114.45;1720765;81;22209;-89
2020/12/04 05:18:12;;;;;;;7.47;5.12;;;;;;;3.62;79.66;95121.67;1724789;81;21133;-90
2020/12/04 05:20:43;;;;;;;8.73;5.72;;;;;;;3.68;79.69;95123.55;1720091;81;21317;-89
2020/12/04 05:23:10;;;;;;;9.23;6.53;;;;;;;3.92;80.39;95129.04;1718825;81;21114;-91
2020/12/04 05:25:41;;;;;;;8.18;6.05;;;;;;;4.08;79.79;95128.92;1731085;81;21107;-90
2020/12/04 05:28:17;;;;;;;7.78;5.92;;;;;;;4.31;79.99;95125.53;1729417;81;21131;-90
2020/12/04 05:30:47;;;;;;;9.53;7.17;;;;;;;4.44;79.62;95120.59;1717878;81;21294;-91
2020/12/04 05:33:13;;;;;;;6.92;5.25;;;;;;;4.65;79.48;95128.92;1724131;81;21187;-91
2020/12/04 05:35:40;;;;;;;6.28;5.37;;;;;;;4.56;78.61;95136.42;1728134;81;21170;-90
2020/12/04 05:38:11;;;;;;;5.83;5.03;;;;;;;4.46;78.18;95133.59;1721401;81;21103;-91
2020/12/04 05:40:40;;;;;;;5.97;5.05;;;;;;;4.35;77.99;95131.42;1724877;81;21347;-90
2020/12/04 05:43:06;;;;;;;6.83;5.33;;;;;;;4.29;78.61;95137.28;1728417;81;21114;-91
2020/12/04 05:45:32;;;;;;;6.67;5.25;;;;;;;4.46;79.14;95127.65;1732562;81;21142;-91
2020/12/04 05:47:58;;;;;;;5.30;4.62;;;;;;;4.55;78.30;95133.51;1730063;81;21121;-90
2020/12/04 05:50:25;;;;;;;6.55;5.80;;;;;;;4.32;78.09;95121.98;1725394;82;21082;-90
2020/12/04 05:52:51;;;;;;;7.78;5.10;;;;;;;4.29;77.73;95139.05;1725047;82;21113;-90
2020/12/04 05:55:17;;;;;;;7.53;5.60;;;;;;;4.26;78.81;95137.63;1727212;82;21694;-91
2020/12/04 05:57:55;;;;;;;6.42;5.40;;;;;;;4.22;78.06;95126.86;1723501;82;21117;-91
2020/12/04 06:00:21;;;;;;;6.10;4.70;;;;;;;4.20;78.52;95144.23;1718242;82;21083;-91
2020/12/04 06:02:58;;;;;;;6.28;4.83;;;;;;;4.32;78.66;95133.06;1719624;82;21129;-90
2020/12/04 06:05:26;;;;;;;7.95;5.70;;;;;;;4.29;78.01;95134.70;1721871;82;21135;-90
2020/12/04 06:08:05;;;;;;;7.55;5.70;;;;;;;4.43;79.00;95126.72;1674478;84;21148;-91
2020/12/04 06:10:33;;;;;;;7.40;6.28;;;;;;;4.66;78.90;95137.75;1695893;83;21280;-91
2020/12/04 06:13:00;;;;;;;7.53;5.10;;;;;;;4.79;78.48;95144.38;1672797;85;21105;-92
2020/12/04 06:15:29;;;;;;;8.68;5.60;;;;;;;4.81;78.08;95132.63;1713645;82;21118;-90
2020/12/04 06:18:07;;;;;;;6.92;5.53;;;;;;;4.93;78.24;95129.93;1723461;82;21328;-91
2020/12/04 06:20:43;;;;;;;8.35;6.00;;;;;;;5.08;78.08;95142.32;1723343;82;21150;-92
2020/12/04 06:23:15;;;;;;;6.50;5.08;;;;;;;5.25;77.52;95157.09;1743763;82;21118;-90
2020/12/04 06:26:03;;;;;;;7.08;5.47;;;;;;;5.31;77.44;95131.91;1730437;82;21119;-90
2020/12/04 06:28:39;;;;;;;7.58;5.78;;;;;;;5.51;77.38;95150.66;1674114;84;21132;-90
2020/12/04 06:31:13;;;;;;;7.20;4.87;;;;;;;5.56;76.69;95162.53;1700692;83;21657;-90
2020/12/04 06:33:48;;;;;;;8.70;5.35;;;;;;;5.64;76.26;95135.36;1723252;82;21123;-89
2020/12/04 06:36:33;;;;;;;8.50;6.10;;;;;;;5.79;75.60;95150.30;1700748;84;21163;-89
2020/12/04 06:39:02;;;;;;;7.72;5.97;;;;;;;5.81;76.09;95147.53;1722790;82;21119;-89
2020/12/04 06:41:44;;;;;;;6.65;5.50;;;;;;;5.80;75.71;95163.98;1733871;82;21097;-88
2020/12/04 06:44:18;;;;;;;5.53;4.78;;;;;;;5.82;75.72;95165.40;1724231;82;21267;-88
2020/12/04 06:46:47;;;;;;;8.20;6.15;;;;;;;5.85;74.99;95158.58;1735652;82;21258;-89
2020/12/04 06:52:16;;;;;;;6.65;4.67;;;;;;;5.88;75.43;95160.02;1713116;82;21119;-89
2020/12/04 06:54:46;;;;;;;6.03;5.15;;;;;;;5.93;75.33;95155.14;1729485;82;21110;-90
2020/12/04 06:57:13;;;;;;;7.72;5.03;;;;;;;5.94;74.99;95160.11;1723056;82;21272;-89
2020/12/04 06:59:41;;;;;;;7.15;5.95;;;;;;;5.89;74.59;95149.53;1715048;82;21115;-89
2020/12/04 07:02:16;;;;;;;5.33;4.42;;;;;;;5.89;74.82;95146.95;1726441;82;21115;-89
2020/12/04 07:04:52;;;;;;;6.47;5.03;;;;;;;5.89;74.99;95155.97;1721338;82;21138;-88
2020/12/04 07:10:03;;;;;;;6.58;5.40;;;;;;;5.96;75.01;95145.75;1812171;76;23416;-88
2020/12/04 07:12:31;;;;;;;5.67;5.05;;;;;;;5.92;74.97;95154.34;1758549;79;21449;-89
2020/12/04 07:14:59;;;;;;;7.72;5.70;;;;;;;5.88;74.40;95167.27;1808365;78;21098;-88
2020/12/04 07:17:29;;;;;;;7.78;5.87;;;;;;;5.80;74.62;95159.63;1814515;78;21105;-87
2020/12/04 07:19:56;;;;;;;6.17;5.17;;;;;;;5.78;74.46;95160.30;1815393;78;21105;-88
2020/12/04 07:22:23;;;;;;;6.78;5.30;;;;;;;5.64;74.38;95163.70;1803462;78;21352;-88
2020/12/04 07:24:52;;;;;;;5.37;4.65;;;;;;;5.59;74.62;95159.11;1819430;78;21388;-88
2020/12/04 07:27:21;;;;;;;6.25;5.22;;;;;;;5.42;74.25;95149.48;1820099;78;21078;-88
2020/12/04 07:29:48;;;;;;;8.55;6.60;;;;;;;5.22;74.35;95160.03;1802935;78;21272;-87
2020/12/04 07:32:14;;;;;;;7.17;5.17;;;;;;;5.08;74.63;95154.39;1804550;78;21352;-87
2020/12/04 07:34:40;;;;;;;4.50;3.75;;;;;;;4.95;75.01;95157.58;1749991;78;21348;-87
2020/12/04 07:37:07;;;;;;;7.00;4.58;;;;;;;4.88;74.78;95131.41;1809621;78;21070;-88
2020/12/04 07:39:36;;;;;;;7.67;5.10;;;;;;;4.87;75.45;95149.12;1803831;78;21129;-88
2020/12/04 07:42:04;;;;;;;7.97;5.85;;;;;;;5.01;75.57;95131.12;1780219;78;21117;-88
2020/12/04 07:44:43;;;;;;;8.75;6.45;;;;;;;5.08;75.30;95137.66;1803910;78;21141;-86
2020/12/04 07:47:12;;;;;;;9.00;5.80;;;;;;;5.26;75.85;95154.83;1792756;78;21137;-89
2020/12/04 07:49:45;;;;;;;5.60;4.60;;;;;;;5.37;75.62;95155.67;1819580;78;21102;-88
2020/12/04 07:52:24;;;;;;;;;;;;;;;5.47;75.60;95146.36;1754339;80;21102;-88
2020/12/04 07:55:03;;;;;;;5.10;3.92;;;;;;;5.53;75.42;95153.85;1764236;81;20149;-89
2020/12/04 07:58:00;;;;;;;6.65;4.42;;;;;;;5.48;74.35;95157.47;1751291;81;21117;-87
2020/12/04 08:00:35;;;;;;;6.05;4.75;;;;;;;5.40;75.15;95144.21;1773365;81;21123;-87
2020/12/04 08:03:13;;;;;;;4.85;3.98;;;;;;;5.42;74.68;95151.27;1768365;79;21286;-87
2020/12/04 08:05:40;;;;;;;5.83;4.50;;;;;;;5.30;74.87;95152.20;1728702;81;21086;-87
2020/12/04 08:08:07;;;;;;;5.25;4.50;;;;;;;5.24;74.75;95141.83;1725825;81;21125;-87
2020/12/04 08:10:34;;;;;;;5.70;4.97;;;;;;;5.17;75.16;95145.59;1761838;81;21245;-87
2020/12/04 08:13:03;;;;;;;3.75;3.37;;;;;;;5.19;75.43;95152.64;1755115;80;21436;-87
2020/12/04 08:15:29;;;;;;;6.25;4.87;;;;;;;5.35;75.48;95142.15;1764835;80;21134;-86
2020/12/04 08:18:04;;;;;;;6.75;4.72;;;;;;;5.56;75.54;95152.23;1759584;80;21087;-87
2020/12/04 08:20:30;;;;;;;5.42;3.98;;;;;;;5.62;75.11;95165.18;1767283;80;21321;-87
2020/12/04 08:22:56;;;;;;;5.62;3.87;;;;;;;5.66;74.39;95156.59;1728434;82;21276;-87
2020/12/04 08:25:27;;;;;;;8.98;6.42;;;;;;;5.88;75.15;95156.16;1739376;81;21134;-88
2020/12/04 08:27:53;;;;;;;6.47;4.62;;;;;;;5.96;74.64;95134.14;1737626;81;22133;-86
2020/12/04 08:30:24;;;;;;;5.20;4.28;;;;;;;5.95;74.21;95148.02;1694439;83;21080;-88
2020/12/04 08:32:59;;;;;;;4.40;3.45;;;;;;;6.00;74.25;95135.37;1749396;80;21146;-87
2020/12/04 08:35:38;;;;;;;15.30;10.38;;;;;;;6.06;74.42;95141.59;1767668;81;21107;-86
2020/12/04 08:38:18;;;;;;;7.85;5.72;;;;;;;6.08;74.20;95134.47;1769775;80;21110;-87
2020/12/04 08:40:50;;;;;;;5.80;3.73;;;;;;;6.36;74.15;95166.28;1760193;81;21221;-87
2020/12/04 08:43:20;;;;;;;5.60;3.83;;;;;;;6.49;72.90;95156.05;1745448;80;21169;-87
2020/12/04 08:45:51;;;;;;;5.08;4.30;;;;;;;6.70;72.99;95154.45;1732663;82;21316;-86
2020/12/04 08:48:20;;;;;;;4.33;3.65;;;;;;;6.73;73.02;95147.62;1740342;82;21145;-87
2020/12/04 08:50:52;;;;;;;5.08;3.92;;;;;;;6.77;72.54;95141.08;1740990;82;21134;-86
2020/12/04 08:53:20;;;;;;;4.97;3.90;;;;;;;6.79;72.01;95142.48;1740436;82;22089;-86
2020/12/04 08:55:51;;;;;;;5.28;3.87;;;;;;;6.62;72.17;95153.59;1739793;82;21110;-86
2020/12/04 08:58:19;;;;;;;6.00;3.80;;;;;;;6.53;72.39;95156.02;1739749;82;21415;-87
2020/12/04 09:00:47;;;;;;;6.50;4.60;;;;;;;6.46;72.30;95147.40;1713528;82;21147;-87
2020/12/04 09:03:14;;;;;;;6.17;3.98;;;;;;;6.47;72.63;95156.73;1743333;80;21436;-87
2020/12/04 09:05:40;;;;;;;7.35;5.50;;;;;;;6.50;72.13;95142.16;1755807;80;21135;-86
2020/12/04 09:08:07;;;;;;;5.95;4.35;;;;;;;6.54;72.39;95144.70;1741117;82;21245;-87
2020/12/04 09:10:36;;;;;;;5.30;4.40;;;;;;;6.54;72.38;95151.16;1741182;82;21245;-87
2020/12/04 09:13:02;;;;;;;4.65;3.65;;;;;;;6.60;72.33;95142.66;1737385;81;21136;-87
2020/12/04 09:15:29;;;;;;;13.88;11.88;;;;;;;6.65;72.13;95138.70;1746716;81;21337;-87
2020/12/04 09:17:59;;;;;;;7.97;5.92;;;;;;;6.76;72.29;95132.55;1750985;80;21249;-86
2020/12/04 09:20:25;;;;;;;5.42;4.60;;;;;;;6.83;72.43;95133.41;1756564;81;21440;-87
2020/12/04 09:22:52;;;;;;;5.40;3.77;;;;;;;6.87;72.14;95129.94;1741152;81;21131;-87
2020/12/04 09:25:19;;;;;;;4.17;3.77;;;;;;;6.83;71.04;95142.90;1769289;80;21107;-86
2020/12/04 09:27:45;;;;;;;4.10;2.92;;;;;;;6.91;71.90;95135.83;1767737;80;21146;-86
2020/12/04 09:30:13;;;;;;;4.00;3.05;;;;;;;7.01;71.71;95128.25;1767059;81;21443;-86
2020/12/04 09:32:44;;;;;;;4.28;3.27;;;;;;;7.15;71.05;95136.34;1744107;82;21122;-87
2020/12/04 09:35:10;;;;;;;3.42;2.83;;;;;;;7.22;71.19;95140.58;1740687;80;21420;-86
2020/12/04 09:37:36;;;;;;;4.62;3.72;;;;;;;7.23;70.95;95138.79;1745238;80;21127;-87
2020/12/04 09:40:12;;;;;;;9.95;9.05;;;;;;;7.34;71.14;95136.97;1733354;81;21157;-87
2020/12/04 09:42:38;;;;;;;5.10;4.60;;;;;;;7.30;70.99;95141.39;1714942;82;21490;-87
2020/12/04 09:45:06;;;;;;;4.47;3.92;;;;;;;7.32;71.06;95132.95;1752042;80;21126;-87
2020/12/04 09:47:33;;;;;;;3.52;3.02;;;;;;;7.33;70.89;95144.91;1741480;81;21240;-87
2020/12/04 09:49:59;;;;;;;3.42;2.33;;;;;;;7.29;70.78;95140.59;1740748;81;21154;-87
2020/12/04 09:52:26;;;;;;;3.50;2.80;;;;;;;7.38;70.85;95121.88;1748974;80;21111;-88
2020/12/04 09:54:52;;;;;;;3.17;2.87;;;;;;;7.47;70.99;95127.16;1706895;82;21375;-87
2020/12/04 09:57:18;;;;;;;4.08;3.08;;;;;;;7.51;70.72;95130.97;1732402;80;21138;-88
2020/12/04 09:59:45;;;;;;;4.20;2.85;;;;;;;7.57;70.49;95117.77;1735176;80;21150;-89
2020/12/04 10:02:11;;;;;;;3.33;2.55;;;;;;;7.69;69.93;95108.47;1768306;80;21134;-87
2020/12/04 10:07:20;;;;;;;3.25;2.65;;;;;;;7.93;68.82;95097.57;1819212;77;22615;-87
2020/12/04 10:09:48;;;;;;;4.40;2.27;;;;;;;7.90;68.71;95104.93;1707619;82;21169;-88
2020/12/04 10:12:15;;;;;;;3.55;2.60;;;;;;;7.98;68.06;95101.68;1706818;82;21140;-88
2020/12/04 10:14:41;;;;;;;3.62;2.50;;;;;;;8.09;69.02;95101.08;1684623;84;21164;-88
2020/12/04 10:17:08;;;;;;;3.15;2.30;;;;;;;8.12;68.38;95089.03;1699535;84;21428;-89
2020/12/04 10:19:36;;;;;;;2.95;2.25;;;;;;;8.14;67.18;95061.70;1723471;82;21164;-87
2020/12/04 10:22:02;;;;;;;3.33;2.80;;;;;;;8.23;68.23;95076.02;1722664;82;21129;-88
2020/12/04 10:24:28;;;;;;;5.40;4.33;;;;;;;8.21;68.77;95079.30;1706329;82;21164;-87
2020/12/04 10:26:54;;;;;;;3.27;2.62;;;;;;;8.23;68.96;95072.14;1737396;81;21751;-88
2020/12/04 10:29:20;;;;;;;3.35;2.50;;;;;;;8.16;68.63;95099.02;1752176;81;21140;-88
2020/12/04 10:31:46;;;;;;;3.30;2.65;;;;;;;8.15;68.23;95085.28;1742954;81;21145;-89
2020/12/04 10:34:14;;;;;;;2.60;2.40;;;;;;;8.10;68.50;95085.85;1734762;81;21165;-89
2020/12/04 10:36:40;;;;;;;5.12;4.62;;;;;;;8.08;68.08;95065.06;1721217;82;21125;-87
2020/12/04 10:39:08;;;;;;;4.60;4.08;;;;;;;8.05;67.96;95063.67;1713779;82;21260;-89
2020/12/04 10:41:36;;;;;;;3.20;1.98;;;;;;;8.19;68.22;95059.30;1695808;82;21173;-87
2020/12/04 10:44:04;;;;;;;2.85;2.55;;;;;;;8.27;68.00;95055.70;1696986;82;21406;-88
2020/12/04 10:46:31;;;;;;;2.22;2.00;;;;;;;8.38;68.29;95048.67;1727920;82;21438;-89
2020/12/04 10:48:57;;;;;;;3.08;2.52;;;;;;;8.48;66.38;95052.17;1711458;82;21140;-89
2020/12/04 10:51:23;;;;;;;2.75;1.80;;;;;;;8.56;67.62;95048.06;1732055;82;21249;-89
2020/12/04 10:53:50;;;;;;;2.45;1.90;;;;;;;8.58;66.45;95040.38;1715742;82;21106;-90
2020/12/04 10:56:22;;;;;;;2.00;1.80;;;;;;;8.68;66.57;95031.72;1706330;82;21140;-90
2020/12/04 10:58:52;;;;;;;2.98;1.82;;;;;;;8.72;66.55;95029.01;1704445;82;21153;-89
2020/12/04 11:06:25;;;;;;;2.25;1.82;;;;;;;8.86;66.07;95022.00;1680827;83;21145;-90
2020/12/04 11:08:52;;;;;;;2.80;2.08;;;;;;;8.84;65.48;95024.50;1728186;82;21427;-90
2020/12/04 11:11:21;;;;;;;3.25;2.25;;;;;;;8.83;66.18;95013.85;1702572;82;21158;-91
2020/12/04 11:13:47;;;;;;;1.98;1.65;;;;;;;8.80;65.84;95005.20;1696878;83;21122;-90
2020/12/04 11:16:14;;;;;;;2.40;2.05;;;;;;;8.79;65.80;95009.59;1741212;82;21465;-91
2020/12/04 11:18:40;;;;;;;1.57;1.47;;;;;;;8.77;66.11;94997.31;1697829;82;21132;-92
2020/12/04 11:21:06;;;;;;;2.35;1.67;;;;;;;8.78;65.48;95004.08;1724851;82;21156;-91
2020/12/04 11:23:33;;;;;;;2.70;1.85;;;;;;;8.78;65.89;95012.34;1719929;82;21172;-91
2020/12/04 11:25:59;;;;;;;1.90;1.27;;;;;;;8.77;65.65;94999.91;1710710;82;21149;-91
2020/12/04 11:28:25;;;;;;;2.33;1.50;;;;;;;8.72;65.14;94984.19;1707735;82;21113;-91
2020/12/04 11:30:51;;;;;;;1.87;1.72;;;;;;;8.71;65.10;94978.72;1676642;84;21102;-91
2020/12/04 11:33:17;;;;;;;2.33;2.12;;;;;;;8.73;65.72;94989.16;1663551;86;21387;-91
2020/12/04 11:35:44;;;;;;;2.05;1.85;;;;;;;8.76;65.39;94991.05;1676394;84;21279;-91
2020/12/04 11:38:10;;;;;;;2.70;2.22;;;;;;;8.76;65.61;95013.06;1676780;84;21141;-92
2020/12/04 11:40:36;;;;;;;2.27;2.08;;;;;;;8.77;65.62;94994.72;1663016;84;21260;-91
2020/12/04 11:43:02;;;;;;;2.33;1.98;;;;;;;8.78;64.75;95021.42;1676704;84;21430;-91
2020/12/04 11:45:28;;;;;;;2.45;2.05;;;;;;;8.77;64.89;94996.52;1669778;85;21315;-92
2020/12/04 11:47:58;;;;;;;3.22;1.90;;;;;;;8.75;64.86;95006.29;1709509;82;22107;-93
2020/12/04 11:50:25;;;;;;;2.55;2.02;;;;;;;8.77;65.64;95011.55;1696235;82;21314;-90
2020/12/04 11:52:51;;;;;;;3.27;1.70;;;;;;;8.82;65.69;95022.63;1726250;82;21121;-90
2020/12/04 11:55:17;;;;;;;2.22;1.72;;;;;;;8.87;64.83;95013.73;1700138;84;21158;-89
2020/12/04 11:57:43;;;;;;;2.60;1.90;;;;;;;8.89;64.91;95020.30;1665296;84;21153;-89